createdAt,value
2023-03-12T00:00:12.658Z,0.00
2023-03-12T00:01:12.627Z,0.00
2023-03-12T00:02:12.690Z,0.00
2023-03-12T00:03:12.628Z,0.00
2023-03-12T00:04:12.598Z,0.00
2023-03-12T00:05:12.628Z,0.00
2023-03-12T00:06:12.569Z,0.00
2023-03-12T00:07:12.574Z,0.00
2023-03-12T00:08:12.549Z,0.00
2023-03-12T00:09:12.539Z,0.00
2023-03-12T00:10:12.525Z,0.00
2023-03-12T00:11:12.576Z,0.00
2023-03-12T00:12:12.526Z,0.00
2023-03-12T00:13:12.500Z,0.00
2023-03-12T00:14:12.485Z,0.00
2023-03-12T00:15:12.474Z,0.00
2023-03-12T00:16:12.586Z,0.00
2023-03-12T00:17:12.481Z,0.00
2023-03-12T00:18:12.452Z,0.00
2023-03-12T00:19:12.458Z,0.00
2023-03-12T00:20:12.434Z,0.00
2023-03-12T00:21:12.410Z,0.00
2023-03-12T00:22:12.396Z,0.00
2023-03-12T00:23:12.433Z,0.00
2023-03-12T00:24:12.390Z,0.00
2023-03-12T00:25:12.391Z,0.00
2023-03-12T00:26:12.359Z,0.00
2023-03-12T00:27:12.357Z,0.00
2023-03-12T00:28:12.332Z,0.00
2023-03-12T00:29:12.357Z,0.00
2023-03-12T00:30:12.311Z,0.00
2023-03-12T00:31:12.399Z,0.00
2023-03-12T00:32:12.286Z,0.00
2023-03-12T00:33:12.285Z,0.00
2023-03-12T00:34:12.270Z,0.00
2023-03-12T00:35:12.291Z,0.00
2023-03-12T00:36:12.243Z,0.00
2023-03-12T00:37:12.266Z,0.00
2023-03-12T00:38:12.222Z,0.00
2023-03-12T00:39:12.217Z,0.00
2023-03-12T00:40:12.208Z,0.00
2023-03-12T00:41:12.246Z,0.00
2023-03-12T00:42:12.191Z,0.00
2023-03-12T00:43:12.181Z,0.00
2023-03-12T00:44:12.159Z,0.00
2023-03-12T00:45:12.157Z,0.00
2023-03-12T00:46:12.266Z,0.00
2023-03-12T00:47:12.194Z,0.00
2023-03-12T00:48:12.126Z,0.00
2023-03-12T00:49:12.108Z,0.00
2023-03-12T00:50:12.100Z,0.00
2023-03-12T00:51:12.108Z,0.00
2023-03-12T00:52:12.070Z,0.00
2023-03-12T00:53:12.129Z,0.00
2023-03-12T00:54:12.052Z,0.00
2023-03-12T00:55:12.042Z,0.00
2023-03-12T00:56:12.029Z,0.00
2023-03-12T00:57:12.021Z,0.00
2023-03-12T00:58:12.009Z,0.00
2023-03-12T00:59:12.064Z,0.00
2023-03-12T01:00:11.984Z,0.00
2023-03-12T01:01:12.075Z,0.00
2023-03-12T01:02:11.965Z,0.00
2023-03-12T01:03:11.965Z,0.00
2023-03-12T01:04:12.052Z,0.00
2023-03-12T01:05:12.016Z,0.00
2023-03-12T01:06:11.922Z,0.00
2023-03-12T01:07:11.945Z,0.00
2023-03-12T01:08:11.905Z,0.00
2023-03-12T01:09:11.895Z,0.00
2023-03-12T01:10:11.891Z,0.00
2023-03-12T01:11:11.946Z,0.00
2023-03-12T01:12:11.859Z,0.00
2023-03-12T01:13:11.853Z,0.00
2023-03-12T01:14:11.840Z,0.00
2023-03-12T01:15:11.832Z,0.00
2023-03-12T01:16:11.857Z,0.00
2023-03-12T01:17:11.891Z,0.00
2023-03-12T01:18:11.813Z,0.00
2023-03-12T01:19:11.791Z,0.00
2023-03-12T01:20:11.780Z,0.00
2023-03-12T01:21:11.784Z,0.00
2023-03-12T01:22:11.765Z,0.00
2023-03-12T01:23:11.833Z,0.00
2023-03-12T01:24:11.738Z,0.00
2023-03-12T01:25:11.746Z,0.00
2023-03-12T01:26:11.712Z,0.00
2023-03-12T01:27:11.704Z,0.00
2023-03-12T01:28:11.696Z,0.00
2023-03-12T01:29:11.722Z,0.00
2023-03-12T01:30:11.670Z,0.00
2023-03-12T01:31:11.684Z,0.00
2023-03-12T01:32:11.651Z,0.00
2023-03-12T01:33:11.649Z,0.00
2023-03-12T01:34:11.628Z,0.00
2023-03-12T01:35:11.749Z,0.00
2023-03-12T01:36:11.668Z,0.00
2023-03-12T01:37:11.621Z,0.00
2023-03-12T01:38:11.585Z,0.00
2023-03-12T01:39:11.616Z,0.00
2023-03-12T01:40:11.561Z,0.00
2023-03-12T01:41:11.610Z,0.00
2023-03-12T01:42:11.540Z,0.00
2023-03-12T01:43:11.548Z,0.00
2023-03-12T01:44:11.532Z,0.00
2023-03-12T01:45:11.511Z,0.00
2023-03-12T01:46:11.528Z,0.00
2023-03-12T01:47:11.542Z,0.00
2023-03-12T01:48:11.477Z,0.00
2023-03-12T01:49:11.516Z,0.00
2023-03-12T01:50:11.458Z,0.00
2023-03-12T01:51:11.461Z,0.00
2023-03-12T01:52:11.439Z,0.00
2023-03-12T01:53:11.461Z,0.00
2023-03-12T01:54:11.424Z,0.00
2023-03-12T01:55:11.454Z,0.00
2023-03-12T01:56:11.401Z,0.00
2023-03-12T01:57:11.379Z,0.00
2023-03-12T01:58:11.372Z,0.00
2023-03-12T01:59:11.407Z,0.00
2023-03-12T02:00:11.354Z,0.00
2023-03-12T02:01:11.399Z,0.00
2023-03-12T02:02:11.329Z,0.00
2023-03-12T02:03:11.316Z,0.00
2023-03-12T02:04:11.348Z,0.00
2023-03-12T02:05:11.358Z,0.00
2023-03-12T02:06:11.300Z,0.00
2023-03-12T02:07:11.279Z,0.00
2023-03-12T02:08:11.274Z,0.00
2023-03-12T02:09:11.252Z,0.00
2023-03-12T02:10:11.246Z,0.00
2023-03-12T02:11:11.290Z,0.00
2023-03-12T02:12:11.230Z,0.00
2023-03-12T02:13:11.219Z,0.00
2023-03-12T02:14:11.203Z,0.00
2023-03-12T02:15:11.202Z,0.00
2023-03-12T02:16:11.187Z,0.00
2023-03-12T02:17:11.223Z,0.00
2023-03-12T02:18:11.160Z,0.00
2023-03-12T02:19:11.147Z,0.00
2023-03-12T02:20:11.139Z,0.00
2023-03-12T02:21:11.138Z,0.00
2023-03-12T02:22:11.120Z,0.00
2023-03-12T02:23:11.149Z,0.00
2023-03-12T02:24:11.099Z,0.00
2023-03-12T02:25:11.112Z,0.00
2023-03-12T02:26:11.112Z,0.00
2023-03-12T02:27:11.084Z,0.00
2023-03-12T02:28:11.066Z,0.00
2023-03-12T02:29:11.089Z,0.00
2023-03-12T02:30:11.037Z,0.00
2023-03-12T02:31:11.035Z,0.00
2023-03-12T02:32:11.014Z,0.00
2023-03-12T02:33:11.014Z,0.00
2023-03-12T02:34:11.008Z,0.00
2023-03-12T02:35:11.030Z,0.00
2023-03-12T02:36:11.006Z,0.00
2023-03-12T02:37:10.970Z,0.00
2023-03-12T02:38:10.953Z,0.00
2023-03-12T02:39:10.940Z,0.00
2023-03-12T02:40:10.934Z,0.00
2023-03-12T02:41:10.981Z,0.00
2023-03-12T02:42:10.923Z,0.00
2023-03-12T02:43:10.920Z,0.00
2023-03-12T02:44:10.892Z,0.00
2023-03-12T02:45:10.876Z,0.00
2023-03-12T02:46:10.949Z,0.00
2023-03-12T02:47:10.909Z,0.00
2023-03-12T02:48:10.845Z,0.00
2023-03-12T02:49:10.834Z,0.00
2023-03-12T02:50:10.842Z,0.00
2023-03-12T02:51:10.817Z,0.00
2023-03-12T02:52:10.807Z,0.00
2023-03-12T02:53:10.844Z,0.00
2023-03-12T02:54:10.784Z,0.00
2023-03-12T02:55:10.770Z,0.00
2023-03-12T02:56:10.764Z,0.00
2023-03-12T02:57:10.753Z,0.00
2023-03-12T02:58:10.754Z,0.00
2023-03-12T02:59:10.768Z,0.00
2023-03-12T03:00:10.721Z,0.00
2023-03-12T03:01:10.734Z,0.00
2023-03-12T03:02:10.713Z,0.00
2023-03-12T03:03:10.724Z,0.00
2023-03-12T03:04:10.735Z,0.00
2023-03-12T03:05:10.718Z,0.00
2023-03-12T03:06:10.661Z,0.00
2023-03-12T03:07:10.645Z,0.00
2023-03-12T03:08:10.636Z,0.00
2023-03-12T03:09:10.638Z,0.00
2023-03-12T03:10:10.617Z,0.00
2023-03-12T03:11:10.666Z,0.00
2023-03-12T03:12:10.606Z,0.00
2023-03-12T03:13:10.581Z,0.00
2023-03-12T03:14:10.596Z,0.00
2023-03-12T03:15:10.581Z,0.00
2023-03-12T03:16:10.562Z,0.00
2023-03-12T03:17:10.599Z,0.00
2023-03-12T03:18:10.544Z,0.00
2023-03-12T03:19:10.541Z,0.00
2023-03-12T03:20:10.517Z,0.00
2023-03-12T03:21:10.503Z,0.00
2023-03-12T03:22:10.496Z,0.00
2023-03-12T03:23:10.524Z,0.00
2023-03-12T03:24:10.472Z,0.00
2023-03-12T03:25:10.476Z,0.00
2023-03-12T03:26:10.460Z,0.00
2023-03-12T03:27:10.437Z,0.00
2023-03-12T03:28:10.431Z,0.00
2023-03-12T03:29:10.483Z,0.00
2023-03-12T03:30:10.409Z,0.00
2023-03-12T03:31:10.455Z,0.00
2023-03-12T03:32:10.392Z,0.00
2023-03-12T03:33:10.374Z,0.00
2023-03-12T03:34:10.370Z,0.00
2023-03-12T03:35:10.418Z,0.00
2023-03-12T03:36:10.344Z,0.00
2023-03-12T03:37:10.332Z,0.00
2023-03-12T03:38:10.320Z,0.00
2023-03-12T03:39:10.310Z,0.00
2023-03-12T03:40:10.300Z,0.00
2023-03-12T03:41:10.350Z,0.00
2023-03-12T03:42:10.279Z,0.00
2023-03-12T03:43:10.269Z,0.00
2023-03-12T03:44:10.264Z,0.00
2023-03-12T03:45:10.251Z,0.00
2023-03-12T03:46:10.256Z,0.00
2023-03-12T03:47:10.310Z,0.00
2023-03-12T03:48:10.217Z,0.00
2023-03-12T03:49:10.207Z,0.00
2023-03-12T03:50:10.212Z,0.00
2023-03-12T03:51:10.187Z,0.00
2023-03-12T03:52:10.174Z,0.00
2023-03-12T03:53:10.231Z,0.00
2023-03-12T03:54:10.170Z,0.00
2023-03-12T03:55:10.158Z,0.00
2023-03-12T03:56:10.132Z,0.00
2023-03-12T03:57:10.118Z,0.00
2023-03-12T03:58:10.109Z,0.00
2023-03-12T03:59:10.184Z,0.00
2023-03-12T04:00:10.119Z,0.00
2023-03-12T04:01:10.080Z,0.00
2023-03-12T04:02:10.073Z,0.00
2023-03-12T04:03:10.138Z,0.00
2023-03-12T04:04:10.046Z,0.00
2023-03-12T04:05:10.076Z,0.00
2023-03-12T04:06:10.028Z,0.00
2023-03-12T04:07:10.017Z,0.00
2023-03-12T04:08:10.026Z,0.00
2023-03-12T04:09:10.031Z,0.00
2023-03-12T04:10:09.988Z,0.00
2023-03-12T04:11:10.040Z,0.00
2023-03-12T04:12:09.962Z,0.00
2023-03-12T04:13:09.950Z,0.00
2023-03-12T04:14:09.943Z,0.00
2023-03-12T04:15:09.938Z,0.00
2023-03-12T04:16:10.022Z,0.00
2023-03-12T04:17:09.952Z,0.00
2023-03-12T04:18:09.990Z,0.00
2023-03-12T04:19:09.914Z,0.00
2023-03-12T04:20:09.882Z,0.00
2023-03-12T04:21:09.886Z,0.00
2023-03-12T04:22:09.858Z,0.00
2023-03-12T04:23:09.888Z,0.00
2023-03-12T04:24:09.844Z,0.00
2023-03-12T04:25:09.832Z,0.00
2023-03-12T04:26:09.814Z,0.00
2023-03-12T04:27:09.807Z,0.00
2023-03-12T04:28:09.805Z,0.00
2023-03-12T04:29:09.821Z,0.00
2023-03-12T04:30:09.775Z,0.00
2023-03-12T04:31:09.814Z,0.00
2023-03-12T04:32:09.755Z,0.00
2023-03-12T04:33:09.740Z,0.00
2023-03-12T04:34:09.747Z,0.00
2023-03-12T04:35:09.797Z,0.00
2023-03-12T04:36:09.771Z,0.00
2023-03-12T04:37:09.701Z,0.00
2023-03-12T04:38:09.708Z,0.00
2023-03-12T04:39:09.684Z,0.00
2023-03-12T04:40:09.676Z,0.00
2023-03-12T04:41:09.700Z,0.00
2023-03-12T04:42:09.650Z,0.00
2023-03-12T04:43:09.643Z,0.00
2023-03-12T04:44:12.569Z,0.00
2023-03-12T04:45:09.615Z,0.00
2023-03-12T04:46:09.656Z,0.00
2023-03-12T04:47:09.645Z,0.00
2023-03-12T04:48:09.590Z,0.00
2023-03-12T04:49:09.579Z,0.00
2023-03-12T04:50:09.587Z,0.00
2023-03-12T04:51:09.577Z,0.00
2023-03-12T04:52:09.549Z,0.00
2023-03-12T04:53:09.673Z,0.00
2023-03-12T04:54:09.549Z,0.00
2023-03-12T04:55:09.518Z,0.00
2023-03-12T04:56:09.508Z,0.00
2023-03-12T04:57:09.498Z,0.00
2023-03-12T04:58:09.490Z,0.00
2023-03-12T04:59:09.527Z,0.00
2023-03-12T05:00:09.479Z,0.00
2023-03-12T05:01:09.458Z,0.00
2023-03-12T05:02:09.444Z,0.00
2023-03-12T05:03:09.531Z,0.00
2023-03-12T05:04:09.571Z,0.00
2023-03-12T05:05:09.456Z,0.00
2023-03-12T05:06:09.416Z,0.00
2023-03-12T05:07:09.414Z,0.00
2023-03-12T05:08:09.382Z,0.00
2023-03-12T05:09:09.367Z,0.00
2023-03-12T05:10:09.359Z,0.00
2023-03-12T05:11:09.408Z,0.00
2023-03-12T05:12:09.340Z,4.00
2023-03-12T05:13:09.330Z,0.00
2023-03-12T05:14:09.317Z,0.00
2023-03-12T05:15:09.306Z,4.00
2023-03-12T05:16:09.337Z,4.00
2023-03-12T05:17:09.343Z,4.00
2023-03-12T05:18:09.276Z,8.00
2023-03-12T05:19:09.260Z,4.00
2023-03-12T05:20:09.258Z,8.00
2023-03-12T05:21:09.236Z,12.00
2023-03-12T05:22:09.231Z,12.00
2023-03-12T05:23:09.292Z,16.00
2023-03-12T05:24:09.212Z,20.00
2023-03-12T05:25:09.197Z,20.00
2023-03-12T05:26:09.190Z,24.00
2023-03-12T05:27:09.174Z,32.00
2023-03-12T05:28:09.169Z,36.00
2023-03-12T05:29:09.220Z,44.00
2023-03-12T05:30:09.153Z,52.00
2023-03-12T05:31:09.190Z,64.00
2023-03-12T05:32:09.128Z,76.00
2023-03-12T05:33:09.117Z,88.00
2023-03-12T05:34:09.105Z,100.00
2023-03-12T05:35:09.144Z,112.00
2023-03-12T05:36:09.107Z,128.00
2023-03-12T05:37:09.067Z,140.00
2023-03-12T05:38:09.069Z,152.00
2023-03-12T05:39:09.089Z,160.00
2023-03-12T05:40:09.062Z,176.00
2023-03-12T05:41:09.073Z,192.00
2023-03-12T05:42:09.018Z,216.00
2023-03-12T05:43:09.008Z,244.00
2023-03-12T05:44:09.000Z,268.00
2023-03-12T05:45:08.986Z,284.00
2023-03-12T05:46:09.100Z,300.00
2023-03-12T05:47:09.031Z,328.00
2023-03-12T05:48:08.955Z,340.00
2023-03-12T05:49:08.941Z,352.00
2023-03-12T05:50:08.930Z,388.00
2023-03-12T05:51:08.929Z,420.00
2023-03-12T05:52:08.919Z,444.00
2023-03-12T05:53:08.950Z,464.00
2023-03-12T05:54:08.895Z,492.00
2023-03-12T05:55:08.905Z,516.00
2023-03-12T05:56:08.928Z,556.00
2023-03-12T05:57:08.849Z,604.00
2023-03-12T05:58:08.842Z,652.00
2023-03-12T05:59:08.884Z,696.00
2023-03-12T06:00:08.820Z,740.00
2023-03-12T06:01:08.808Z,776.00
2023-03-12T06:02:08.852Z,816.00
2023-03-12T06:03:08.856Z,856.00
2023-03-12T06:04:08.821Z,888.00
2023-03-12T06:05:08.763Z,928.00
2023-03-12T06:06:08.756Z,968.00
2023-03-12T06:07:08.763Z,1004.00
2023-03-12T06:08:08.750Z,1044.00
2023-03-12T06:09:08.724Z,1100.00
2023-03-12T06:10:08.769Z,1164.00
2023-03-12T06:11:08.723Z,1232.00
2023-03-12T06:12:08.692Z,1300.00
2023-03-12T06:13:08.734Z,1408.00
2023-03-12T06:14:08.668Z,1520.00
2023-03-12T06:15:08.662Z,1556.00
2023-03-12T06:16:08.693Z,1604.00
2023-03-12T06:17:08.642Z,1704.00
2023-03-12T06:18:08.630Z,1776.00
2023-03-12T06:19:08.635Z,1812.00
2023-03-12T06:20:08.603Z,1840.00
2023-03-12T06:21:08.598Z,1884.00
2023-03-12T06:22:08.626Z,1836.00
2023-03-12T06:23:08.573Z,1844.00
2023-03-12T06:24:08.560Z,1888.00
2023-03-12T06:25:08.591Z,1936.00
2023-03-12T06:26:08.548Z,2068.00
2023-03-12T06:27:08.561Z,2208.00
2023-03-12T06:28:08.568Z,2308.00
2023-03-12T06:29:08.511Z,2384.00
2023-03-12T06:30:08.505Z,2424.00
2023-03-12T06:31:08.562Z,2448.00
2023-03-12T06:32:08.480Z,2504.00
2023-03-12T06:33:08.467Z,2608.00
2023-03-12T06:34:08.509Z,2784.00
2023-03-12T06:35:08.463Z,2940.00
2023-03-12T06:36:08.456Z,3084.00
2023-03-12T06:37:08.435Z,3280.00
2023-03-12T06:38:08.416Z,3580.00
2023-03-12T06:39:08.406Z,3912.00
2023-03-12T06:40:08.438Z,4224.00
2023-03-12T06:41:08.386Z,4764.00
2023-03-12T06:42:08.386Z,5384.00
2023-03-12T06:43:08.384Z,6344.00
2023-03-12T06:44:08.352Z,7184.00
2023-03-12T06:45:08.358Z,7240.00
2023-03-12T06:46:08.413Z,7204.00
2023-03-12T06:47:08.324Z,6708.00
2023-03-12T06:48:08.312Z,6416.00
2023-03-12T06:49:08.318Z,5864.00
2023-03-12T06:50:08.288Z,5424.00
2023-03-12T06:51:08.275Z,5128.00
2023-03-12T06:52:08.302Z,4720.00
2023-03-12T06:53:08.261Z,4432.00
2023-03-12T06:54:08.253Z,4368.00
2023-03-12T06:55:08.247Z,4288.00
2023-03-12T06:56:08.229Z,4372.00
2023-03-12T06:57:08.213Z,4280.00
2023-03-12T06:58:08.226Z,4292.00
2023-03-12T06:59:08.241Z,4668.00
2023-03-12T07:00:08.248Z,5364.00
2023-03-12T07:01:08.189Z,5948.00
2023-03-12T07:02:08.211Z,5996.00
2023-03-12T07:03:08.164Z,5572.00
2023-03-12T07:04:08.186Z,5556.00
2023-03-12T07:05:08.209Z,5832.00
2023-03-12T07:06:08.122Z,5912.00
2023-03-12T07:07:08.130Z,6040.00
2023-03-12T07:08:08.102Z,5536.00
2023-03-12T07:09:08.099Z,4984.00
2023-03-12T07:10:08.128Z,4772.00
2023-03-12T07:11:08.071Z,4648.00
2023-03-12T07:12:08.060Z,4924.00
2023-03-12T07:13:08.087Z,5576.00
2023-03-12T07:14:08.034Z,5512.00
2023-03-12T07:15:08.045Z,5168.00
2023-03-12T07:16:08.140Z,4956.00
2023-03-12T07:17:08.003Z,4896.00
2023-03-12T07:18:08.009Z,5020.00
2023-03-12T07:19:08.001Z,5268.00
2023-03-12T07:20:07.970Z,6088.00
2023-03-12T07:21:08.009Z,18560.00
2023-03-12T07:22:07.981Z,7172.00
2023-03-12T07:23:07.948Z,26400.00
2023-03-12T07:24:07.955Z,29760.00
2023-03-12T07:25:07.927Z,31808.00
2023-03-12T07:26:07.923Z,22240.00
2023-03-12T07:27:07.901Z,33376.00
2023-03-12T07:28:07.917Z,35040.00
2023-03-12T07:29:07.881Z,36448.00
2023-03-12T07:30:07.893Z,38144.00
2023-03-12T07:31:07.991Z,40128.00
2023-03-12T07:32:07.849Z,43424.00
2023-03-12T07:33:08.006Z,47168.00
2023-03-12T07:34:08.008Z,50528.00
2023-03-12T07:35:07.810Z,67872.00
2023-03-12T07:36:07.935Z,29056.00
2023-03-12T07:37:07.789Z,33568.00
2023-03-12T07:38:07.856Z,27104.00
2023-03-12T07:39:07.764Z,25280.00
2023-03-12T07:40:07.844Z,24576.00
2023-03-12T07:41:07.828Z,32000.00
2023-03-12T07:42:07.815Z,28192.00
2023-03-12T07:43:07.719Z,22304.00
2023-03-12T07:44:07.793Z,23136.00
2023-03-12T07:45:07.723Z,24320.00
2023-03-12T07:46:07.735Z,25696.00
2023-03-12T07:47:22.861Z,30336.00
2023-03-12T07:48:08.737Z,25504.00
2023-03-12T07:49:07.654Z,54912.00
2023-03-12T07:50:07.756Z,24160.00
2023-03-12T07:51:07.627Z,23232.00
2023-03-12T07:52:07.705Z,22016.00
2023-03-12T07:53:07.611Z,22272.00
2023-03-12T07:54:07.594Z,23744.00
2023-03-12T07:55:07.690Z,22304.00
2023-03-12T07:56:07.754Z,23392.00
2023-03-12T07:57:07.725Z,27008.00
2023-03-12T07:58:07.713Z,24800.00
2023-03-12T07:59:07.701Z,27040.00
2023-03-12T08:00:07.606Z,28032.00
2023-03-12T08:01:07.576Z,28768.00
2023-03-12T08:02:07.633Z,29184.00
2023-03-12T08:03:07.919Z,40288.00
2023-03-12T08:04:07.613Z,69472.00
2023-03-12T08:05:07.543Z,45568.00
2023-03-12T08:06:07.542Z,57344.00
2023-03-12T08:07:09.306Z,78912.00
2023-03-12T08:08:07.441Z,30304.00
2023-03-12T08:09:07.432Z,31360.00
2023-03-12T08:10:07.527Z,32448.00
2023-03-12T08:11:07.423Z,61952.00
2023-03-12T08:12:07.429Z,70112.00
2023-03-12T08:13:07.435Z,75232.00
2023-03-12T08:14:07.457Z,69312.00
2023-03-12T08:15:07.391Z,58976.00
2023-03-12T08:16:09.422Z,60160.00
2023-03-12T08:17:07.355Z,39808.00
2023-03-12T08:18:07.339Z,61888.00
2023-03-12T08:19:07.376Z,60928.00
2023-03-12T08:20:07.309Z,50752.00
2023-03-12T08:21:07.300Z,37408.00
2023-03-12T08:22:07.315Z,39072.00
2023-03-12T08:23:07.280Z,29152.00
2023-03-12T08:24:07.266Z,26720.00
2023-03-12T08:25:07.276Z,26592.00
2023-03-12T08:26:07.250Z,23520.00
2023-03-12T08:27:07.236Z,26816.00
2023-03-12T08:28:07.246Z,27648.00
2023-03-12T08:29:07.212Z,26368.00
2023-03-12T08:30:07.217Z,23936.00
2023-03-12T08:31:07.190Z,23840.00
2023-03-12T08:32:07.245Z,26432.00
2023-03-12T08:33:07.200Z,26176.00
2023-03-12T08:34:07.178Z,23552.00
2023-03-12T08:35:07.169Z,21152.00
2023-03-12T08:36:07.146Z,20480.00
2023-03-12T08:37:07.136Z,19360.00
2023-03-12T08:38:07.112Z,17952.00
2023-03-12T08:39:07.105Z,16088.00
2023-03-12T08:40:07.175Z,15228.00
2023-03-12T08:41:07.081Z,14172.00
2023-03-12T08:42:07.070Z,14312.00
2023-03-12T08:43:07.059Z,14780.00
2023-03-12T08:44:07.047Z,16900.00
2023-03-12T08:45:07.037Z,19360.00
2023-03-12T08:46:07.113Z,19648.00
2023-03-12T08:47:07.020Z,18656.00
2023-03-12T08:48:07.004Z,19840.00
2023-03-12T08:49:07.003Z,23072.00
2023-03-12T08:50:06.982Z,23808.00
2023-03-12T08:51:07.005Z,23424.00
2023-03-12T08:52:07.019Z,22304.00
2023-03-12T08:53:06.953Z,21536.00
2023-03-12T08:54:06.945Z,23232.00
2023-03-12T08:55:06.933Z,24640.00
2023-03-12T08:56:06.922Z,26272.00
2023-03-12T08:57:06.926Z,28064.00
2023-03-12T08:58:06.934Z,23968.00
2023-03-12T08:59:06.894Z,22016.00
2023-03-12T09:00:06.877Z,22400.00
2023-03-12T09:01:06.871Z,23328.00
2023-03-12T09:02:06.869Z,23072.00
2023-03-12T09:03:06.900Z,22368.00
2023-03-12T09:04:06.894Z,21152.00
2023-03-12T09:05:06.829Z,19584.00
2023-03-12T09:06:06.810Z,20576.00
2023-03-12T09:07:06.845Z,22304.00
2023-03-12T09:08:06.802Z,24096.00
2023-03-12T09:09:06.781Z,23648.00
2023-03-12T09:10:06.805Z,23904.00
2023-03-12T09:11:06.765Z,25376.00
2023-03-12T09:12:06.752Z,29600.00
2023-03-12T09:13:06.739Z,33696.00
2023-03-12T09:15:07.773Z,16864.00
2023-03-12T09:16:06.732Z,20960.00
2023-03-12T09:17:06.712Z,50848.00
2023-03-12T09:18:06.694Z,62496.00
2023-03-12T09:19:06.688Z,75008.00
2023-03-12T09:20:06.664Z,70560.00
2023-03-12T09:21:06.650Z,74752.00
2023-03-12T09:22:06.678Z,81376.00
2023-03-12T09:23:07.760Z,74304.00
2023-03-12T09:24:06.648Z,81600.00
2023-03-12T09:25:06.618Z,71104.00
2023-03-12T09:26:06.591Z,77440.00
2023-03-12T09:27:06.581Z,68992.00
2023-03-12T09:28:06.611Z,69888.00
2023-03-12T09:29:06.570Z,67456.00
2023-03-12T09:30:06.551Z,45728.00
2023-03-12T09:31:06.590Z,40640.00
2023-03-12T09:32:06.525Z,39040.00
2023-03-12T09:33:06.510Z,39808.00
2023-03-12T09:34:06.530Z,41856.00
2023-03-12T09:35:06.493Z,39328.00
2023-03-12T09:36:06.527Z,6156.00
2023-03-12T09:37:06.478Z,5940.00
2023-03-12T09:38:06.458Z,5764.00
2023-03-12T09:39:06.473Z,5576.00
2023-03-12T09:40:06.456Z,5428.00
2023-03-12T09:41:06.445Z,5228.00
2023-03-12T09:42:06.415Z,5044.00
2023-03-12T09:43:06.408Z,4844.00
2023-03-12T09:44:06.403Z,4628.00
2023-03-12T09:45:06.395Z,4412.00
2023-03-12T09:46:06.441Z,4292.00
2023-03-12T09:47:06.371Z,4252.00
2023-03-12T09:48:06.348Z,4440.00
2023-03-12T09:49:06.336Z,4700.00
2023-03-12T09:50:06.337Z,5464.00
2023-03-12T09:51:06.312Z,7772.00
2023-03-12T09:52:06.331Z,9548.00
2023-03-12T09:53:06.330Z,11284.00
2023-03-12T09:54:06.283Z,10632.00
2023-03-12T09:55:06.293Z,12124.00
2023-03-12T09:56:06.261Z,11408.00
2023-03-12T09:57:06.248Z,12100.00
2023-03-12T09:58:06.286Z,7416.00
2023-03-12T09:59:06.241Z,12580.00
2023-03-12T10:00:06.219Z,13396.00
2023-03-12T10:01:06.208Z,12940.00
2023-03-12T10:02:06.209Z,12884.00
2023-03-12T10:03:06.272Z,11988.00
2023-03-12T10:04:06.227Z,13480.00
2023-03-12T10:05:06.223Z,115904.00
2023-03-12T10:06:06.200Z,114208.00
2023-03-12T10:07:06.141Z,97472.00
2023-03-12T10:08:23.066Z,76704.00
2023-03-12T10:09:07.128Z,140000.00
2023-03-12T10:10:06.143Z,132896.00
2023-03-12T10:11:06.116Z,121984.00
2023-03-12T10:12:06.092Z,140192.00
2023-03-12T10:13:06.082Z,152960.00
2023-03-12T10:14:06.073Z,64896.00
2023-03-12T10:15:06.065Z,92448.00
2023-03-12T10:16:06.101Z,77344.00
2023-03-12T10:17:06.039Z,76544.00
2023-03-12T10:18:06.274Z,55040.00
2023-03-12T10:19:06.081Z,49664.00
2023-03-12T10:20:06.003Z,51136.00
2023-03-12T10:21:05.989Z,56096.00
2023-03-12T10:22:06.023Z,51776.00
2023-03-12T10:23:05.971Z,51456.00
2023-03-12T10:24:05.957Z,54304.00
2023-03-12T10:25:05.950Z,64960.00
2023-03-12T10:26:05.942Z,54272.00
2023-03-12T10:27:05.966Z,43040.00
2023-03-12T10:28:05.937Z,46912.00
2023-03-12T10:29:05.901Z,46304.00
2023-03-12T10:30:05.889Z,55936.00
2023-03-12T10:31:05.960Z,50176.00
2023-03-12T10:32:05.878Z,68864.00
2023-03-12T10:33:05.856Z,60864.00
2023-03-12T10:34:05.859Z,55424.00
2023-03-12T10:35:05.836Z,55520.00
2023-03-12T10:36:05.868Z,53664.00
2023-03-12T10:37:05.836Z,39456.00
2023-03-12T10:38:05.816Z,31616.00
2023-03-12T10:39:05.834Z,31808.00
2023-03-12T10:40:05.780Z,38656.00
2023-03-12T10:41:05.769Z,40672.00
2023-03-12T10:42:05.764Z,47200.00
2023-03-12T10:43:05.786Z,49376.00
2023-03-12T10:44:05.737Z,43616.00
2023-03-12T10:45:05.750Z,34784.00
2023-03-12T10:46:05.770Z,32032.00
2023-03-12T10:47:05.722Z,35264.00
2023-03-12T10:48:05.688Z,47168.00
2023-03-12T10:49:05.693Z,40288.00
2023-03-12T10:50:05.666Z,31520.00
2023-03-12T10:51:05.699Z,25632.00
2023-03-12T10:52:05.653Z,23776.00
2023-03-12T10:53:05.688Z,22048.00
2023-03-12T10:54:05.632Z,22112.00
2023-03-12T10:55:05.616Z,22944.00
2023-03-12T10:56:05.618Z,24608.00
2023-03-12T10:57:05.650Z,23936.00
2023-03-12T10:58:05.579Z,24448.00
2023-03-12T10:59:05.597Z,27776.00
2023-03-12T11:00:05.558Z,28544.00
2023-03-12T11:01:05.551Z,25376.00
2023-03-12T11:02:05.574Z,25728.00
2023-03-12T11:03:05.546Z,27872.00
2023-03-12T11:04:05.514Z,21568.00
2023-03-12T11:05:05.508Z,22624.00
2023-03-12T11:06:05.523Z,28192.00
2023-03-12T11:07:05.483Z,34784.00
2023-03-12T11:08:05.478Z,36832.00
2023-03-12T11:09:16.119Z,38688.00
2023-03-12T11:10:06.464Z,32224.00
2023-03-12T11:11:05.440Z,34976.00
2023-03-12T11:12:05.438Z,32544.00
2023-03-12T11:13:05.420Z,46784.00
2023-03-12T11:14:05.403Z,55200.00
2023-03-12T11:15:05.431Z,76032.00
2023-03-12T11:16:05.444Z,81856.00
2023-03-12T11:17:05.386Z,83968.00
2023-03-12T11:18:05.374Z,43488.00
2023-03-12T11:19:05.375Z,49856.00
2023-03-12T11:20:05.338Z,93184.00
2023-03-12T11:21:05.417Z,99296.00
2023-03-12T11:22:05.335Z,103936.00
2023-03-12T11:23:05.309Z,99264.00
2023-03-12T11:24:05.296Z,95008.00
2023-03-12T11:25:05.287Z,93664.00
2023-03-12T11:26:05.281Z,100192.00
2023-03-12T11:27:05.284Z,83136.00
2023-03-12T11:28:05.282Z,66272.00
2023-03-12T11:29:05.258Z,54624.00
2023-03-12T11:30:05.279Z,40224.00
2023-03-12T11:31:05.294Z,38144.00
2023-03-12T11:32:05.302Z,38848.00
2023-03-12T11:33:05.256Z,48192.00
2023-03-12T11:34:05.182Z,53920.00
2023-03-12T11:35:05.207Z,31232.00
2023-03-12T11:36:05.162Z,29440.00
2023-03-12T11:37:05.155Z,33472.00
2023-03-12T11:38:05.152Z,39296.00
2023-03-12T11:39:05.158Z,29408.00
2023-03-12T11:40:05.123Z,28928.00
2023-03-12T11:41:05.128Z,28480.00
2023-03-12T11:42:05.105Z,27136.00
2023-03-12T11:43:05.085Z,25664.00
2023-03-12T11:44:05.072Z,24768.00
2023-03-12T11:45:05.095Z,24928.00
2023-03-12T11:46:05.052Z,25344.00
2023-03-12T11:47:05.074Z,26016.00
2023-03-12T11:48:05.031Z,27808.00
2023-03-12T11:49:05.022Z,30464.00
2023-03-12T11:50:05.009Z,29344.00
2023-03-12T11:51:05.032Z,28928.00
2023-03-12T11:52:05.006Z,31520.00
2023-03-12T11:53:04.981Z,34752.00
2023-03-12T11:54:04.967Z,35136.00
2023-03-12T11:55:04.959Z,59232.00
2023-03-12T11:56:04.945Z,65824.00
2023-03-12T11:57:04.962Z,44768.00
2023-03-12T11:58:04.936Z,40160.00
2023-03-12T11:59:04.914Z,34496.00
2023-03-12T12:00:04.937Z,34464.00
2023-03-12T12:01:04.893Z,37280.00
2023-03-12T12:02:05.049Z,39968.00
2023-03-12T12:03:04.947Z,42464.00
2023-03-12T12:04:04.877Z,85536.00
2023-03-12T12:05:04.848Z,47680.00
2023-03-12T12:06:04.841Z,48384.00
2023-03-12T12:07:04.891Z,44864.00
2023-03-12T12:08:04.812Z,47840.00
2023-03-12T12:09:04.856Z,42912.00
2023-03-12T12:10:04.792Z,38336.00
2023-03-12T12:11:04.785Z,34528.00
2023-03-12T12:12:05.758Z,33952.00
2023-03-12T12:13:04.769Z,37472.00
2023-03-12T12:14:04.756Z,44672.00
2023-03-12T12:15:04.793Z,49184.00
2023-03-12T12:16:04.744Z,46432.00
2023-03-12T12:17:04.719Z,39488.00
2023-03-12T12:18:04.744Z,35584.00
2023-03-12T12:19:04.754Z,34048.00
2023-03-12T12:20:04.684Z,33792.00
2023-03-12T12:21:04.709Z,32544.00
2023-03-12T12:22:04.670Z,34912.00
2023-03-12T12:23:04.651Z,32864.00
2023-03-12T12:24:04.658Z,33504.00
2023-03-12T12:25:04.633Z,37312.00
2023-03-12T12:26:04.615Z,77440.00
2023-03-12T12:27:04.656Z,42944.00
2023-03-12T12:28:04.599Z,43552.00